sensor_id;sensor_type;location;lat;lon;timestamp;P1;durP1;ratioP1;P2;durP2;ratioP2
4547;SDS011;2286;51.570;7.090;2022-10-17T00:01:39;11.60;;;7.53;;
4547;SDS011;2286;51.570;7.090;2022-10-17T00:04:06;7.43;;;6.80;;
4547;SDS011;2286;51.570;7.090;2022-10-17T00:06:33;7.67;;;6.87;;
4547;SDS011;2286;51.570;7.090;2022-10-17T00:09:00;7.43;;;6.50;;
4547;SDS011;2286;51.570;7.090;2022-10-17T00:11:28;7.50;;;6.90;;
4547;SDS011;2286;51.570;7.090;2022-10-17T00:13:55;8.33;;;7.40;;
4547;SDS011;2286;51.570;7.090;2022-10-17T00:16:24;7.70;;;6.97;;
4547;SDS011;2286;51.570;7.090;2022-10-17T00:18:52;7.03;;;6.43;;
4547;SDS011;2286;51.570;7.090;2022-10-17T00:21:19;7.67;;;6.97;;
4547;SDS011;2286;51.570;7.090;2022-10-17T00:23:47;7.40;;;6.33;;
4547;SDS011;2286;51.570;7.090;2022-10-17T00:26:14;7.83;;;6.63;;
4547;SDS011;2286;51.570;7.090;2022-10-17T00:28:44;7.47;;;6.90;;
4547;SDS011;2286;51.570;7.090;2022-10-17T00:31:12;7.20;;;6.70;;
4547;SDS011;2286;51.570;7.090;2022-10-17T00:33:40;8.40;;;7.67;;
4547;SDS011;2286;51.570;7.090;2022-10-17T00:36:08;7.33;;;6.73;;
4547;SDS011;2286;51.570;7.090;2022-10-17T00:38:37;7.40;;;6.80;;
4547;SDS011;2286;51.570;7.090;2022-10-17T00:41:06;7.67;;;6.97;;
4547;SDS011;2286;51.570;7.090;2022-10-17T00:46:17;7.37;;;6.57;;
4547;SDS011;2286;51.570;7.090;2022-10-17T00:48:46;9.33;;;8.43;;
4547;SDS011;2286;51.570;7.090;2022-10-17T00:51:16;7.60;;;6.83;;
4547;SDS011;2286;51.570;7.090;2022-10-17T00:53:46;8.33;;;7.73;;
4547;SDS011;2286;51.570;7.090;2022-10-17T00:56:13;7.40;;;6.70;;
4547;SDS011;2286;51.570;7.090;2022-10-17T00:58:41;7.60;;;7.10;;
4547;SDS011;2286;51.570;7.090;2022-10-17T01:01:08;7.53;;;7.03;;
4547;SDS011;2286;51.570;7.090;2022-10-17T01:03:35;7.83;;;7.33;;
4547;SDS011;2286;51.570;7.090;2022-10-17T01:06:03;7.87;;;7.03;;
4547;SDS011;2286;51.570;7.090;2022-10-17T01:08:30;8.03;;;7.33;;
4547;SDS011;2286;51.570;7.090;2022-10-17T01:11:00;8.10;;;7.40;;
4547;SDS011;2286;51.570;7.090;2022-10-17T01:13:35;7.80;;;7.20;;
4547;SDS011;2286;51.570;7.090;2022-10-17T01:16:08;8.17;;;7.47;;
4547;SDS011;2286;51.570;7.090;2022-10-17T01:18:46;8.47;;;7.77;;
4547;SDS011;2286;51.570;7.090;2022-10-17T01:21:26;7.63;;;6.93;;
4547;SDS011;2286;51.570;7.090;2022-10-17T01:30:09;8.93;;;8.20;;
4547;SDS011;2286;51.570;7.090;2022-10-17T01:32:56;7.90;;;7.20;;
4547;SDS011;2286;51.570;7.090;2022-10-17T01:35:28;8.00;;;7.40;;
4547;SDS011;2286;51.570;7.090;2022-10-17T01:38:04;8.07;;;7.37;;
4547;SDS011;2286;51.570;7.090;2022-10-17T01:40:35;8.17;;;7.40;;
4547;SDS011;2286;51.570;7.090;2022-10-17T01:43:05;8.50;;;7.70;;
4547;SDS011;2286;51.570;7.090;2022-10-17T01:45:39;7.20;;;6.67;;
4547;SDS011;2286;51.570;7.090;2022-10-17T01:48:14;8.00;;;7.30;;
4547;SDS011;2286;51.570;7.090;2022-10-17T01:50:44;9.07;;;8.17;;
4547;SDS011;2286;51.570;7.090;2022-10-17T01:53:15;7.83;;;7.23;;
4547;SDS011;2286;51.570;7.090;2022-10-17T01:55:46;8.70;;;7.90;;
4547;SDS011;2286;51.570;7.090;2022-10-17T01:58:18;7.83;;;7.33;;
4547;SDS011;2286;51.570;7.090;2022-10-17T02:00:49;9.13;;;7.67;;
4547;SDS011;2286;51.570;7.090;2022-10-17T02:03:20;9.30;;;8.50;;
4547;SDS011;2286;51.570;7.090;2022-10-17T02:05:48;8.07;;;7.40;;
4547;SDS011;2286;51.570;7.090;2022-10-17T02:08:23;8.20;;;7.40;;
4547;SDS011;2286;51.570;7.090;2022-10-17T02:10:53;7.83;;;7.13;;
4547;SDS011;2286;51.570;7.090;2022-10-17T02:13:26;7.57;;;7.00;;
4547;SDS011;2286;51.570;7.090;2022-10-17T02:16:07;8.07;;;7.47;;
4547;SDS011;2286;51.570;7.090;2022-10-17T02:21:44;11.37;;;9.00;;
4547;SDS011;2286;51.570;7.090;2022-10-17T02:24:17;10.07;;;8.50;;
4547;SDS011;2286;51.570;7.090;2022-10-17T02:26:52;10.10;;;9.30;;
4547;SDS011;2286;51.570;7.090;2022-10-17T02:29:23;9.43;;;8.73;;
4547;SDS011;2286;51.570;7.090;2022-10-17T02:32:12;9.17;;;8.27;;
4547;SDS011;2286;51.570;7.090;2022-10-17T02:34:44;10.67;;;9.77;;
4547;SDS011;2286;51.570;7.090;2022-10-17T02:37:14;9.40;;;8.30;;
4547;SDS011;2286;51.570;7.090;2022-10-17T02:39:44;9.17;;;8.33;;
4547;SDS011;2286;51.570;7.090;2022-10-17T02:42:13;9.80;;;8.90;;
4547;SDS011;2286;51.570;7.090;2022-10-17T02:44:42;10.47;;;9.40;;
4547;SDS011;2286;51.570;7.090;2022-10-17T02:47:11;10.23;;;9.27;;
4547;SDS011;2286;51.570;7.090;2022-10-17T02:49:45;8.63;;;7.93;;
4547;SDS011;2286;51.570;7.090;2022-10-17T02:52:16;9.60;;;8.90;;
4547;SDS011;2286;51.570;7.090;2022-10-17T02:54:50;10.70;;;9.53;;
4547;SDS011;2286;51.570;7.090;2022-10-17T02:57:22;9.90;;;9.00;;
4547;SDS011;2286;51.570;7.090;2022-10-17T02:59:53;9.10;;;8.50;;
4547;SDS011;2286;51.570;7.090;2022-10-17T03:02:22;11.10;;;10.03;;
4547;SDS011;2286;51.570;7.090;2022-10-17T03:04:51;10.20;;;9.17;;
4547;SDS011;2286;51.570;7.090;2022-10-17T03:07:18;14.00;;;10.07;;
4547;SDS011;2286;51.570;7.090;2022-10-17T03:09:45;11.57;;;10.57;;
4547;SDS011;2286;51.570;7.090;2022-10-17T03:12:12;10.53;;;9.53;;
4547;SDS011;2286;51.570;7.090;2022-10-17T03:14:38;10.03;;;9.27;;
4547;SDS011;2286;51.570;7.090;2022-10-17T03:17:05;10.27;;;9.23;;
4547;SDS011;2286;51.570;7.090;2022-10-17T03:19:32;9.13;;;8.47;;
4547;SDS011;2286;51.570;7.090;2022-10-17T03:22:00;10.83;;;9.90;;
4547;SDS011;2286;51.570;7.090;2022-10-17T03:24:27;11.43;;;10.40;;
4547;SDS011;2286;51.570;7.090;2022-10-17T03:26:54;10.63;;;9.63;;
4547;SDS011;2286;51.570;7.090;2022-10-17T03:29:21;11.73;;;10.70;;
4547;SDS011;2286;51.570;7.090;2022-10-17T03:31:48;11.27;;;10.27;;
4547;SDS011;2286;51.570;7.090;2022-10-17T03:34:14;10.20;;;9.20;;
4547;SDS011;2286;51.570;7.090;2022-10-17T03:36:42;11.13;;;10.00;;
4547;SDS011;2286;51.570;7.090;2022-10-17T03:39:11;10.00;;;9.20;;
4547;SDS011;2286;51.570;7.090;2022-10-17T03:41:38;11.43;;;10.53;;
4547;SDS011;2286;51.570;7.090;2022-10-17T03:44:04;10.83;;;9.87;;
4547;SDS011;2286;51.570;7.090;2022-10-17T03:46:31;11.80;;;10.80;;
4547;SDS011;2286;51.570;7.090;2022-10-17T03:48:58;14.53;;;10.77;;
4547;SDS011;2286;51.570;7.090;2022-10-17T03:51:25;10.67;;;9.67;;
4547;SDS011;2286;51.570;7.090;2022-10-17T03:53:52;10.67;;;9.73;;
4547;SDS011;2286;51.570;7.090;2022-10-17T03:56:21;10.27;;;9.47;;
4547;SDS011;2286;51.570;7.090;2022-10-17T03:58:49;10.73;;;9.23;;
4547;SDS011;2286;51.570;7.090;2022-10-17T04:01:17;10.30;;;9.40;;
4547;SDS011;2286;51.570;7.090;2022-10-17T04:03:49;10.80;;;9.80;;
4547;SDS011;2286;51.570;7.090;2022-10-17T04:06:16;10.60;;;9.63;;
4547;SDS011;2286;51.570;7.090;2022-10-17T04:08:44;11.20;;;10.20;;
4547;SDS011;2286;51.570;7.090;2022-10-17T04:11:13;10.77;;;9.87;;
4547;SDS011;2286;51.570;7.090;2022-10-17T04:13:42;10.33;;;9.40;;
4547;SDS011;2286;51.570;7.090;2022-10-17T04:16:10;11.93;;;10.87;;
4547;SDS011;2286;51.570;7.090;2022-10-17T04:18:39;10.33;;;9.43;;
4547;SDS011;2286;51.570;7.090;2022-10-17T04:21:08;9.90;;;9.10;;
4547;SDS011;2286;51.570;7.090;2022-10-17T04:23:35;11.83;;;10.73;;
4547;SDS011;2286;51.570;7.090;2022-10-17T04:26:02;11.63;;;10.63;;
4547;SDS011;2286;51.570;7.090;2022-10-17T04:28:30;11.20;;;10.10;;
4547;SDS011;2286;51.570;7.090;2022-10-17T04:30:59;9.87;;;9.13;;
4547;SDS011;2286;51.570;7.090;2022-10-17T04:33:26;12.53;;;10.97;;
4547;SDS011;2286;51.570;7.090;2022-10-17T04:35:54;10.67;;;9.47;;
4547;SDS011;2286;51.570;7.090;2022-10-17T04:38:22;10.23;;;9.23;;
4547;SDS011;2286;51.570;7.090;2022-10-17T04:40:48;10.53;;;9.43;;
4547;SDS011;2286;51.570;7.090;2022-10-17T04:43:15;11.30;;;10.23;;
4547;SDS011;2286;51.570;7.090;2022-10-17T04:45:42;10.27;;;9.47;;
4547;SDS011;2286;51.570;7.090;2022-10-17T04:48:10;9.90;;;9.00;;
4547;SDS011;2286;51.570;7.090;2022-10-17T04:50:37;11.53;;;9.90;;
4547;SDS011;2286;51.570;7.090;2022-10-17T04:53:04;10.50;;;9.50;;
4547;SDS011;2286;51.570;7.090;2022-10-17T04:55:35;10.40;;;9.60;;
4547;SDS011;2286;51.570;7.090;2022-10-17T04:58:03;11.07;;;10.17;;
4547;SDS011;2286;51.570;7.090;2022-10-17T05:00:30;10.27;;;9.30;;
4547;SDS011;2286;51.570;7.090;2022-10-17T05:02:57;11.20;;;10.20;;
4547;SDS011;2286;51.570;7.090;2022-10-17T05:05:25;11.10;;;10.10;;
4547;SDS011;2286;51.570;7.090;2022-10-17T05:07:52;11.17;;;10.27;;
4547;SDS011;2286;51.570;7.090;2022-10-17T05:10:18;10.20;;;9.40;;
4547;SDS011;2286;51.570;7.090;2022-10-17T05:12:45;10.20;;;9.40;;
4547;SDS011;2286;51.570;7.090;2022-10-17T05:15:13;11.00;;;9.90;;
4547;SDS011;2286;51.570;7.090;2022-10-17T05:17:40;11.80;;;10.33;;
4547;SDS011;2286;51.570;7.090;2022-10-17T05:20:07;11.63;;;10.43;;
4547;SDS011;2286;51.570;7.090;2022-10-17T05:22:36;12.07;;;11.07;;
4547;SDS011;2286;51.570;7.090;2022-10-17T05:25:03;12.03;;;10.93;;
4547;SDS011;2286;51.570;7.090;2022-10-17T05:27:31;12.73;;;11.73;;
4547;SDS011;2286;51.570;7.090;2022-10-17T05:29:58;18.50;;;12.77;;
4547;SDS011;2286;51.570;7.090;2022-10-17T05:32:25;11.57;;;10.37;;
4547;SDS011;2286;51.570;7.090;2022-10-17T05:34:52;11.33;;;10.30;;
4547;SDS011;2286;51.570;7.090;2022-10-17T05:37:18;11.40;;;10.50;;
4547;SDS011;2286;51.570;7.090;2022-10-17T05:39:47;12.00;;;10.90;;
4547;SDS011;2286;51.570;7.090;2022-10-17T05:42:14;10.43;;;9.53;;
4547;SDS011;2286;51.570;7.090;2022-10-17T05:44:40;11.73;;;10.83;;
4547;SDS011;2286;51.570;7.090;2022-10-17T05:47:07;13.23;;;12.07;;
4547;SDS011;2286;51.570;7.090;2022-10-17T05:49:34;10.87;;;10.07;;
4547;SDS011;2286;51.570;7.090;2022-10-17T05:52:01;13.80;;;11.90;;
4547;SDS011;2286;51.570;7.090;2022-10-17T05:54:28;15.83;;;12.43;;
4547;SDS011;2286;51.570;7.090;2022-10-17T05:56:56;11.60;;;10.70;;
4547;SDS011;2286;51.570;7.090;2022-10-17T05:59:23;14.13;;;11.63;;
4547;SDS011;2286;51.570;7.090;2022-10-17T06:01:51;12.40;;;11.20;;
4547;SDS011;2286;51.570;7.090;2022-10-17T06:04:18;12.83;;;11.73;;
4547;SDS011;2286;51.570;7.090;2022-10-17T06:06:45;13.47;;;12.27;;
4547;SDS011;2286;51.570;7.090;2022-10-17T06:09:12;15.77;;;13.40;;
4547;SDS011;2286;51.570;7.090;2022-10-17T06:11:39;13.73;;;11.90;;
4547;SDS011;2286;51.570;7.090;2022-10-17T06:14:07;13.03;;;11.90;;
4547;SDS011;2286;51.570;7.090;2022-10-17T06:16:34;12.93;;;11.73;;
4547;SDS011;2286;51.570;7.090;2022-10-17T06:19:01;14.60;;;13.33;;
4547;SDS011;2286;51.570;7.090;2022-10-17T06:21:28;15.17;;;12.20;;
4547;SDS011;2286;51.570;7.090;2022-10-17T06:23:58;13.80;;;12.60;;
4547;SDS011;2286;51.570;7.090;2022-10-17T06:26:25;14.50;;;12.60;;
4547;SDS011;2286;51.570;7.090;2022-10-17T06:28:52;13.33;;;11.87;;
4547;SDS011;2286;51.570;7.090;2022-10-17T06:31:21;13.00;;;11.80;;
4547;SDS011;2286;51.570;7.090;2022-10-17T06:33:47;13.40;;;12.13;;
4547;SDS011;2286;51.570;7.090;2022-10-17T06:36:14;12.90;;;11.30;;
4547;SDS011;2286;51.570;7.090;2022-10-17T06:38:41;15.07;;;13.53;;
4547;SDS011;2286;51.570;7.090;2022-10-17T06:41:08;15.67;;;14.07;;
4547;SDS011;2286;51.570;7.090;2022-10-17T06:43:38;16.70;;;12.83;;
4547;SDS011;2286;51.570;7.090;2022-10-17T06:46:07;14.13;;;12.83;;
4547;SDS011;2286;51.570;7.090;2022-10-17T06:48:35;15.43;;;13.40;;
4547;SDS011;2286;51.570;7.090;2022-10-17T06:51:03;13.53;;;12.23;;
4547;SDS011;2286;51.570;7.090;2022-10-17T06:53:32;14.80;;;13.30;;
4547;SDS011;2286;51.570;7.090;2022-10-17T06:55:59;11.67;;;10.63;;
4547;SDS011;2286;51.570;7.090;2022-10-17T06:58:27;13.93;;;12.43;;
4547;SDS011;2286;51.570;7.090;2022-10-17T07:00:57;13.10;;;12.00;;
4547;SDS011;2286;51.570;7.090;2022-10-17T07:03:24;13.90;;;12.47;;
4547;SDS011;2286;51.570;7.090;2022-10-17T07:05:53;12.43;;;11.33;;
4547;SDS011;2286;51.570;7.090;2022-10-17T07:08:21;13.00;;;11.73;;
4547;SDS011;2286;51.570;7.090;2022-10-17T07:10:48;15.77;;;13.83;;
4547;SDS011;2286;51.570;7.090;2022-10-17T07:13:15;13.93;;;12.63;;
4547;SDS011;2286;51.570;7.090;2022-10-17T07:15:42;13.93;;;12.53;;
4547;SDS011;2286;51.570;7.090;2022-10-17T07:18:09;17.30;;;15.67;;
4547;SDS011;2286;51.570;7.090;2022-10-17T07:20:36;16.37;;;14.80;;
4547;SDS011;2286;51.570;7.090;2022-10-17T07:23:05;15.57;;;14.10;;
4547;SDS011;2286;51.570;7.090;2022-10-17T07:25:32;16.97;;;15.17;;
4547;SDS011;2286;51.570;7.090;2022-10-17T07:28:00;14.10;;;13.00;;
4547;SDS011;2286;51.570;7.090;2022-10-17T07:30:28;15.10;;;13.57;;
4547;SDS011;2286;51.570;7.090;2022-10-17T07:32:54;15.17;;;13.67;;
4547;SDS011;2286;51.570;7.090;2022-10-17T07:35:21;13.50;;;12.03;;
4547;SDS011;2286;51.570;7.090;2022-10-17T07:37:48;14.73;;;13.13;;
4547;SDS011;2286;51.570;7.090;2022-10-17T07:40:16;14.17;;;12.90;;
4547;SDS011;2286;51.570;7.090;2022-10-17T07:42:43;14.20;;;12.80;;
4547;SDS011;2286;51.570;7.090;2022-10-17T07:45:10;14.17;;;12.97;;
4547;SDS011;2286;51.570;7.090;2022-10-17T07:47:37;14.50;;;12.97;;
4547;SDS011;2286;51.570;7.090;2022-10-17T07:50:04;13.40;;;12.47;;
4547;SDS011;2286;51.570;7.090;2022-10-17T07:52:31;14.10;;;12.80;;
4547;SDS011;2286;51.570;7.090;2022-10-17T07:54:58;15.37;;;14.07;;
4547;SDS011;2286;51.570;7.090;2022-10-17T07:57:27;12.50;;;11.40;;
4547;SDS011;2286;51.570;7.090;2022-10-17T07:59:54;13.90;;;10.90;;
4547;SDS011;2286;51.570;7.090;2022-10-17T08:02:22;12.60;;;11.50;;
4547;SDS011;2286;51.570;7.090;2022-10-17T08:04:50;13.90;;;11.30;;
4547;SDS011;2286;51.570;7.090;2022-10-17T08:07:16;11.67;;;10.77;;
4547;SDS011;2286;51.570;7.090;2022-10-17T08:09:44;15.03;;;11.13;;
4547;SDS011;2286;51.570;7.090;2022-10-17T08:12:11;9.53;;;8.63;;
4547;SDS011;2286;51.570;7.090;2022-10-17T08:14:40;10.80;;;8.33;;
4547;SDS011;2286;51.570;7.090;2022-10-17T08:17:08;11.60;;;10.57;;
4547;SDS011;2286;51.570;7.090;2022-10-17T08:19:36;9.77;;;8.90;;
4547;SDS011;2286;51.570;7.090;2022-10-17T08:22:05;8.80;;;8.10;;
4547;SDS011;2286;51.570;7.090;2022-10-17T08:24:32;10.50;;;9.50;;
4547;SDS011;2286;51.570;7.090;2022-10-17T08:26:59;11.47;;;7.20;;
4547;SDS011;2286;51.570;7.090;2022-10-17T08:29:26;10.53;;;8.57;;
4547;SDS011;2286;51.570;7.090;2022-10-17T08:31:55;8.83;;;8.03;;
4547;SDS011;2286;51.570;7.090;2022-10-17T08:34:21;8.63;;;6.80;;
4547;SDS011;2286;51.570;7.090;2022-10-17T08:36:48;7.83;;;6.30;;
4547;SDS011;2286;51.570;7.090;2022-10-17T08:39:15;7.90;;;5.83;;
4547;SDS011;2286;51.570;7.090;2022-10-17T08:41:46;6.10;;;5.40;;
4547;SDS011;2286;51.570;7.090;2022-10-17T08:44:24;7.03;;;6.43;;
4547;SDS011;2286;51.570;7.090;2022-10-17T08:47:00;7.20;;;5.40;;
4547;SDS011;2286;51.570;7.090;2022-10-17T08:49:35;10.33;;;5.33;;
4547;SDS011;2286;51.570;7.090;2022-10-17T08:52:09;8.03;;;4.90;;
4547;SDS011;2286;51.570;7.090;2022-10-17T08:54:42;5.97;;;5.47;;
4547;SDS011;2286;51.570;7.090;2022-10-17T08:57:12;5.20;;;4.70;;
4547;SDS011;2286;51.570;7.090;2022-10-17T08:59:40;5.50;;;4.17;;
4547;SDS011;2286;51.570;7.090;2022-10-17T09:02:18;4.73;;;3.97;;
4547;SDS011;2286;51.570;7.090;2022-10-17T09:05:03;5.27;;;4.10;;
4547;SDS011;2286;51.570;7.090;2022-10-17T09:07:51;4.37;;;3.83;;
4547;SDS011;2286;51.570;7.090;2022-10-17T09:10:27;5.00;;;4.47;;
4547;SDS011;2286;51.570;7.090;2022-10-17T09:13:04;8.63;;;3.60;;
4547;SDS011;2286;51.570;7.090;2022-10-17T09:15:42;3.80;;;3.47;;
4547;SDS011;2286;51.570;7.090;2022-10-17T09:18:24;5.80;;;4.03;;
4547;SDS011;2286;51.570;7.090;2022-10-17T09:20:56;7.33;;;6.07;;
4547;SDS011;2286;51.570;7.090;2022-10-17T09:23:26;5.70;;;4.33;;
4547;SDS011;2286;51.570;7.090;2022-10-17T09:25:57;7.23;;;4.20;;
4547;SDS011;2286;51.570;7.090;2022-10-17T09:28:26;5.33;;;3.40;;
4547;SDS011;2286;51.570;7.090;2022-10-17T09:30:58;9.43;;;3.40;;
4547;SDS011;2286;51.570;7.090;2022-10-17T09:33:31;4.27;;;3.70;;
4547;SDS011;2286;51.570;7.090;2022-10-17T09:36:03;3.80;;;3.40;;
4547;SDS011;2286;51.570;7.090;2022-10-17T09:38:40;5.27;;;3.73;;
4547;SDS011;2286;51.570;7.090;2022-10-17T09:41:15;5.13;;;3.20;;
4547;SDS011;2286;51.570;7.090;2022-10-17T09:43:44;5.63;;;3.83;;
4547;SDS011;2286;51.570;7.090;2022-10-17T09:46:12;5.17;;;3.30;;
4547;SDS011;2286;51.570;7.090;2022-10-17T09:48:47;5.03;;;3.50;;
4547;SDS011;2286;51.570;7.090;2022-10-17T09:51:17;9.80;;;3.80;;
4547;SDS011;2286;51.570;7.090;2022-10-17T09:53:45;4.80;;;3.40;;
4547;SDS011;2286;51.570;7.090;2022-10-17T09:56:17;4.43;;;3.40;;
4547;SDS011;2286;51.570;7.090;2022-10-17T09:58:46;5.97;;;3.80;;
4547;SDS011;2286;51.570;7.090;2022-10-17T10:01:14;8.50;;;3.67;;
4547;SDS011;2286;51.570;7.090;2022-10-17T10:03:47;3.87;;;3.20;;
4547;SDS011;2286;51.570;7.090;2022-10-17T10:06:33;4.90;;;3.80;;
4547;SDS011;2286;51.570;7.090;2022-10-17T10:09:00;6.13;;;3.70;;
4547;SDS011;2286;51.570;7.090;2022-10-17T10:11:44;5.07;;;3.50;;
4547;SDS011;2286;51.570;7.090;2022-10-17T10:14:29;6.07;;;3.70;;
4547;SDS011;2286;51.570;7.090;2022-10-17T10:16:58;4.50;;;3.37;;
4547;SDS011;2286;51.570;7.090;2022-10-17T10:19:29;7.73;;;3.63;;
4547;SDS011;2286;51.570;7.090;2022-10-17T10:21:58;4.43;;;3.27;;
4547;SDS011;2286;51.570;7.090;2022-10-17T10:24:26;5.70;;;3.37;;
4547;SDS011;2286;51.570;7.090;2022-10-17T10:26:54;9.50;;;3.67;;
4547;SDS011;2286;51.570;7.090;2022-10-17T10:29:25;7.83;;;3.57;;
4547;SDS011;2286;51.570;7.090;2022-10-17T10:31:55;6.67;;;3.77;;
4547;SDS011;2286;51.570;7.090;2022-10-17T10:34:33;6.40;;;3.97;;
4547;SDS011;2286;51.570;7.090;2022-10-17T10:37:02;3.97;;;3.57;;
4547;SDS011;2286;51.570;7.090;2022-10-17T10:39:32;3.97;;;3.57;;
4547;SDS011;2286;51.570;7.090;2022-10-17T10:42:21;4.60;;;3.70;;
4547;SDS011;2286;51.570;7.090;2022-10-17T10:44:51;3.90;;;3.60;;
4547;SDS011;2286;51.570;7.090;2022-10-17T10:47:21;4.83;;;3.27;;
4547;SDS011;2286;51.570;7.090;2022-10-17T10:49:52;6.50;;;3.60;;
4547;SDS011;2286;51.570;7.090;2022-10-17T10:52:34;6.93;;;3.80;;
4547;SDS011;2286;51.570;7.090;2022-10-17T10:55:13;6.47;;;3.37;;
4547;SDS011;2286;51.570;7.090;2022-10-17T10:57:45;8.43;;;3.27;;
4547;SDS011;2286;51.570;7.090;2022-10-17T11:00:15;3.10;;;2.90;;
4547;SDS011;2286;51.570;7.090;2022-10-17T11:02:48;5.23;;;3.30;;
4547;SDS011;2286;51.570;7.090;2022-10-17T11:05:22;3.57;;;3.20;;
4547;SDS011;2286;51.570;7.090;2022-10-17T11:08:03;5.97;;;3.83;;
4547;SDS011;2286;51.570;7.090;2022-10-17T11:10:36;4.67;;;3.80;;
4547;SDS011;2286;51.570;7.090;2022-10-17T11:13:09;7.20;;;3.53;;
4547;SDS011;2286;51.570;7.090;2022-10-17T11:15:41;5.73;;;4.03;;
4547;SDS011;2286;51.570;7.090;2022-10-17T11:18:14;3.73;;;2.80;;
4547;SDS011;2286;51.570;7.090;2022-10-17T11:20:50;11.03;;;3.33;;
4547;SDS011;2286;51.570;7.090;2022-10-17T11:23:22;6.23;;;3.40;;
4547;SDS011;2286;51.570;7.090;2022-10-17T11:25:54;8.00;;;3.20;;
4547;SDS011;2286;51.570;7.090;2022-10-17T11:28:24;6.67;;;3.20;;
4547;SDS011;2286;51.570;7.090;2022-10-17T11:30:53;9.73;;;3.83;;
4547;SDS011;2286;51.570;7.090;2022-10-17T11:33:24;5.67;;;3.70;;
4547;SDS011;2286;51.570;7.090;2022-10-17T11:35:56;6.80;;;3.97;;
4547;SDS011;2286;51.570;7.090;2022-10-17T11:38:33;9.23;;;4.30;;
4547;SDS011;2286;51.570;7.090;2022-10-17T11:41:07;8.10;;;4.10;;
4547;SDS011;2286;51.570;7.090;2022-10-17T11:43:39;5.83;;;3.70;;
4547;SDS011;2286;51.570;7.090;2022-10-17T11:46:15;6.90;;;3.80;;
4547;SDS011;2286;51.570;7.090;2022-10-17T11:48:51;6.93;;;3.80;;
4547;SDS011;2286;51.570;7.090;2022-10-17T11:51:25;4.50;;;4.10;;
4547;SDS011;2286;51.570;7.090;2022-10-17T11:53:53;4.47;;;4.07;;
4547;SDS011;2286;51.570;7.090;2022-10-17T11:56:25;5.30;;;3.50;;
4547;SDS011;2286;51.570;7.090;2022-10-17T11:59:01;6.73;;;4.07;;
4547;SDS011;2286;51.570;7.090;2022-10-17T12:01:39;8.33;;;4.30;;
4547;SDS011;2286;51.570;7.090;2022-10-17T12:04:16;6.83;;;4.00;;
4547;SDS011;2286;51.570;7.090;2022-10-17T12:06:58;7.60;;;4.60;;
4547;SDS011;2286;51.570;7.090;2022-10-17T12:09:33;4.83;;;4.30;;
4547;SDS011;2286;51.570;7.090;2022-10-17T12:12:07;5.87;;;3.97;;
4547;SDS011;2286;51.570;7.090;2022-10-17T12:14:39;5.30;;;4.13;;
4547;SDS011;2286;51.570;7.090;2022-10-17T12:17:21;6.00;;;5.23;;
4547;SDS011;2286;51.570;7.090;2022-10-17T12:19:53;11.90;;;6.20;;
4547;SDS011;2286;51.570;7.090;2022-10-17T12:22:53;7.30;;;5.63;;
4547;SDS011;2286;51.570;7.090;2022-10-17T12:25:22;11.50;;;5.50;;
4547;SDS011;2286;51.570;7.090;2022-10-17T12:28:01;12.10;;;7.03;;
4547;SDS011;2286;51.570;7.090;2022-10-17T12:30:37;6.93;;;6.17;;
4547;SDS011;2286;51.570;7.090;2022-10-17T12:33:16;11.77;;;6.37;;
4547;SDS011;2286;51.570;7.090;2022-10-17T12:35:46;7.17;;;5.67;;
4547;SDS011;2286;51.570;7.090;2022-10-17T12:38:21;9.57;;;6.03;;
4547;SDS011;2286;51.570;7.090;2022-10-17T12:40:53;6.70;;;5.60;;
4547;SDS011;2286;51.570;7.090;2022-10-17T12:43:42;7.63;;;5.80;;
4547;SDS011;2286;51.570;7.090;2022-10-17T12:54:59;7.03;;;4.80;;
4547;SDS011;2286;51.570;7.090;2022-10-17T12:57:39;8.67;;;5.30;;
4547;SDS011;2286;51.570;7.090;2022-10-17T13:00:13;5.50;;;3.83;;
4547;SDS011;2286;51.570;7.090;2022-10-17T13:02:44;4.87;;;4.20;;
4547;SDS011;2286;51.570;7.090;2022-10-17T13:05:13;6.53;;;4.90;;
4547;SDS011;2286;51.570;7.090;2022-10-17T13:07:43;5.33;;;4.80;;
4547;SDS011;2286;51.570;7.090;2022-10-17T13:10:21;5.67;;;5.07;;
4547;SDS011;2286;51.570;7.090;2022-10-17T13:12:50;6.47;;;4.90;;
4547;SDS011;2286;51.570;7.090;2022-10-17T13:15:24;6.83;;;5.20;;
4547;SDS011;2286;51.570;7.090;2022-10-17T13:17:54;5.43;;;4.53;;
4547;SDS011;2286;51.570;7.090;2022-10-17T13:20:24;6.67;;;5.13;;
4547;SDS011;2286;51.570;7.090;2022-10-17T13:22:54;7.20;;;5.43;;
4547;SDS011;2286;51.570;7.090;2022-10-17T13:25:24;7.17;;;6.20;;
4547;SDS011;2286;51.570;7.090;2022-10-17T13:28:01;7.27;;;6.57;;
4547;SDS011;2286;51.570;7.090;2022-10-17T13:30:30;6.27;;;5.80;;
4547;SDS011;2286;51.570;7.090;2022-10-17T13:32:58;8.13;;;5.70;;
4547;SDS011;2286;51.570;7.090;2022-10-17T13:35:26;6.97;;;5.73;;
4547;SDS011;2286;51.570;7.090;2022-10-17T13:37:55;6.73;;;6.07;;
4547;SDS011;2286;51.570;7.090;2022-10-17T13:40:26;7.17;;;6.47;;
4547;SDS011;2286;51.570;7.090;2022-10-17T13:42:55;10.90;;;6.00;;
4547;SDS011;2286;51.570;7.090;2022-10-17T13:45:27;8.50;;;6.47;;
4547;SDS011;2286;51.570;7.090;2022-10-17T13:47:59;6.53;;;5.93;;
4547;SDS011;2286;51.570;7.090;2022-10-17T13:50:30;10.50;;;5.90;;
4547;SDS011;2286;51.570;7.090;2022-10-17T13:53:06;8.80;;;6.40;;
4547;SDS011;2286;51.570;7.090;2022-10-17T13:55:50;10.80;;;6.00;;
4547;SDS011;2286;51.570;7.090;2022-10-17T13:58:22;6.93;;;5.80;;
4547;SDS011;2286;51.570;7.090;2022-10-17T14:00:49;6.63;;;5.40;;
4547;SDS011;2286;51.570;7.090;2022-10-17T14:03:17;7.07;;;6.37;;
4547;SDS011;2286;51.570;7.090;2022-10-17T14:05:58;6.37;;;5.70;;
4547;SDS011;2286;51.570;7.090;2022-10-17T14:08:45;7.83;;;4.63;;
4547;SDS011;2286;51.570;7.090;2022-10-17T14:11:19;4.70;;;4.30;;
4547;SDS011;2286;51.570;7.090;2022-10-17T14:13:50;6.57;;;4.50;;
4547;SDS011;2286;51.570;7.090;2022-10-17T14:16:17;7.97;;;5.47;;
4547;SDS011;2286;51.570;7.090;2022-10-17T14:18:45;7.03;;;4.47;;
4547;SDS011;2286;51.570;7.090;2022-10-17T14:21:17;8.97;;;4.30;;
4547;SDS011;2286;51.570;7.090;2022-10-17T14:23:46;8.60;;;4.93;;
4547;SDS011;2286;51.570;7.090;2022-10-17T14:26:14;8.73;;;4.80;;
4547;SDS011;2286;51.570;7.090;2022-10-17T14:28:46;12.03;;;4.80;;
4547;SDS011;2286;51.570;7.090;2022-10-17T14:31:23;7.10;;;4.50;;
4547;SDS011;2286;51.570;7.090;2022-10-17T14:33:53;7.83;;;4.73;;
4547;SDS011;2286;51.570;7.090;2022-10-17T14:36:28;8.20;;;4.17;;
4547;SDS011;2286;51.570;7.090;2022-10-17T14:39:02;9.27;;;4.60;;
4547;SDS011;2286;51.570;7.090;2022-10-17T14:41:33;6.60;;;4.63;;
4547;SDS011;2286;51.570;7.090;2022-10-17T14:44:02;7.13;;;4.30;;
4547;SDS011;2286;51.570;7.090;2022-10-17T14:46:32;7.10;;;4.33;;
4547;SDS011;2286;51.570;7.090;2022-10-17T14:49:04;9.50;;;4.73;;
4547;SDS011;2286;51.570;7.090;2022-10-17T14:51:32;9.80;;;4.23;;
4547;SDS011;2286;51.570;7.090;2022-10-17T14:54:00;9.30;;;4.63;;
4547;SDS011;2286;51.570;7.090;2022-10-17T14:56:35;5.53;;;3.90;;
4547;SDS011;2286;51.570;7.090;2022-10-17T14:59:05;5.30;;;4.10;;
4547;SDS011;2286;51.570;7.090;2022-10-17T15:01:34;5.30;;;4.20;;
4547;SDS011;2286;51.570;7.090;2022-10-17T15:04:01;8.43;;;4.17;;
4547;SDS011;2286;51.570;7.090;2022-10-17T15:06:28;8.73;;;4.20;;
4547;SDS011;2286;51.570;7.090;2022-10-17T15:08:57;7.13;;;3.80;;
4547;SDS011;2286;51.570;7.090;2022-10-17T15:11:24;5.47;;;3.80;;
4547;SDS011;2286;51.570;7.090;2022-10-17T15:13:53;7.00;;;4.97;;
4547;SDS011;2286;51.570;7.090;2022-10-17T15:16:20;5.63;;;4.43;;
4547;SDS011;2286;51.570;7.090;2022-10-17T15:18:48;5.23;;;4.17;;
4547;SDS011;2286;51.570;7.090;2022-10-17T15:21:16;5.17;;;3.90;;
4547;SDS011;2286;51.570;7.090;2022-10-17T15:23:44;9.47;;;4.47;;
4547;SDS011;2286;51.570;7.090;2022-10-17T15:26:15;5.67;;;3.70;;
4547;SDS011;2286;51.570;7.090;2022-10-17T15:28:43;12.83;;;4.33;;
4547;SDS011;2286;51.570;7.090;2022-10-17T15:31:13;6.00;;;4.80;;
4547;SDS011;2286;51.570;7.090;2022-10-17T15:33:41;5.40;;;4.30;;
4547;SDS011;2286;51.570;7.090;2022-10-17T15:36:16;7.23;;;4.17;;
4547;SDS011;2286;51.570;7.090;2022-10-17T15:38:45;7.07;;;4.50;;
4547;SDS011;2286;51.570;7.090;2022-10-17T15:41:12;6.50;;;4.50;;
4547;SDS011;2286;51.570;7.090;2022-10-17T15:43:39;8.47;;;4.33;;
4547;SDS011;2286;51.570;7.090;2022-10-17T15:46:10;6.90;;;4.70;;